Aeroporto :
LOGIN :

Iscrizione | Disclaimer

   EN    FR    IT 

 










Sommario :    VFR   VFR Marginale   IFR   IFR Intensivo   IFR Molto Intensivo
Visibilità : 
Base nubi : 
>= 8 km
>= 3000ft
5 / 8 km
1000 / 3000 ft
1500m / 5 km
500 / 1000 ft
800 / 1500m
200 / 500 ft
< 800m
< 200 ft
Simboli :   Temporali  Nebbia  Neve Forte  Precipitazioni Forti  Vento > 20 kt
SIGMETs :   Varie  Temporali  Ghiacco  Turbolenza  Onda orograficha  Ceneri Vulcaniche







- Altitudine del aeroporto : 36 ft
- Codice IATA : LTQ
- Carte del aeroporto


LFAT - Le Touquet

ULTIMO METAR :
  • 201800Z AUTO 25012KT 220V280 CAVOK 19/15 Q1014 NOSIG

METARs OBSOLETI :
  • 201730Z AUTO 25009KT 210V280 CAVOK 19/16 Q1013 NOSIG
  • 201700Z AUTO 25012KT 220V280 CAVOK 20/16 Q1013 NOSIG
  • 201630Z AUTO 25012KT 220V280 CAVOK 20/16 Q1013 NOSIG
  • 201600Z AUTO 25013KT 210V280 CAVOK 20/16 Q1013 NOSIG
  • 201530Z AUTO 25015G26KT 220V280 CAVOK 21/17 Q1013 BECMG 25012KT

TAF TAF LFAT
Valido dal 20 a 15 ore il 21 a 00 ore UTC


201400Z 2015/2024 25012KT 9999 BKN020
TEMPO 2015/2016 BKN012
ATIS : +33 3 21 06 62 84
Nessun NOTAM noto per questo aeroporto.



MetMap, La meteo Aeronautica in un colpo d'occhio ! - Copyright ORBIFLY Dicembre 2007 - Disclaimer

ORBIFLY MET'MAP TEAM :

Programmazione e sviluppo : Alexandra Zaïnal
Concezione e sviluppo : Baudouin d'Aumeries
Co-Programmazione e sviluppo : Marc-Olivier Méhu
Supporto tecnico e logistico : Manuel Goepfert
Aiuto per la traduzione : Arnaldo La Scala

Contatto : metmap@orbifly.com




FONTI E CREDITI :

   NOAA